Time;durP1;ratioP1;P1;durP2;ratioP2;P2;SDS_P1;SDS_P2;PMS_P1;PMS_P2;Temp;Humidity;BMP_temperature;BMP_pressure;BME280_temperature;BME280_humidity;BME280_pressure;Samples;Min_cycle;Max_cycle;Signal;HPM_P1;HPM_P2
2022/07/21 00:04:23;;;;;;;7.97;4.25;;;;;;;20.71;100.00;101680.22;9981913;29;20136;-87
2022/07/21 00:09:24;;;;;;;13.13;5.05;;;;;;;19.96;100.00;101550.41;9950985;29;20540;-87
2022/07/21 00:14:24;;;;;;;9.75;4.53;;;;;;;20.25;100.00;101593.34;9970596;29;20053;-87
2022/07/21 00:19:25;;;;;;;8.82;5.03;;;;;;;20.02;100.00;101519.59;9956662;29;20086;-87
2022/07/21 00:24:27;;;;;;;10.05;5.65;;;;;;;20.50;100.00;101592.94;9978358;29;20108;-86
2022/07/21 00:29:27;;;;;;;11.52;5.20;;;;;;;20.13;100.00;101549.03;9972298;29;20041;-85
2022/07/21 00:34:28;;;;;;;11.15;5.55;;;;;;;20.16;100.00;101601.56;9978242;29;20077;-85
2022/07/21 00:39:29;;;;;;;8.07;4.82;;;;;;;20.18;100.00;101613.28;9953988;29;20103;-86
2022/07/21 00:44:29;;;;;;;13.60;7.25;;;;;;;19.87;100.00;101596.09;9986695;29;20034;-85
2022/07/21 00:49:30;;;;;;;22.42;8.73;;;;;;;19.55;100.00;101629.16;9990044;29;20038;-84
2022/07/21 00:54:31;;;;;;;23.55;11.10;;;;;;;18.88;100.00;101664.41;9976093;29;20061;-85
2022/07/21 00:59:31;;;;;;;22.65;12.10;;;;;;;18.75;100.00;101677.88;9993396;29;20121;-84
2022/07/21 01:04:32;;;;;;;28.48;14.18;;;;;;;18.83;100.00;101683.97;9964435;29;20046;-83
2022/07/21 01:09:33;;;;;;;22.88;13.45;;;;;;;18.84;100.00;101719.13;9975209;29;20038;-84
2022/07/21 01:14:34;;;;;;;23.88;13.70;;;;;;;18.84;100.00;101763.75;9973523;29;20042;-84
2022/07/21 01:19:34;;;;;;;22.10;15.02;;;;;;;18.35;100.00;101706.81;9976310;29;21491;-85
2022/07/21 01:24:35;;;;;;;48.90;17.52;;;;;;;18.01;100.00;101614.78;9960006;29;20144;-84
2022/07/21 01:29:35;;;;;;;24.30;15.80;;;;;;;17.98;100.00;101585.50;9951771;29;20034;-84
2022/07/21 01:34:36;;;;;;;31.63;16.83;;;;;;;18.41;100.00;101710.44;9952154;29;20061;-86
2022/07/21 01:44:57;;;;;;;36.65;20.85;;;;;;;18.28;100.00;101696.00;9955187;29;20033;-85
2022/07/21 01:49:57;;;;;;;50.17;21.30;;;;;;;18.10;100.00;101621.41;9981420;29;20037;-85
2022/07/21 01:54:58;;;;;;;39.72;19.92;;;;;;;17.73;100.00;101505.69;9962538;29;20061;-85
2022/07/21 01:59:58;;;;;;;33.63;19.83;;;;;;;18.02;100.00;101521.69;9976442;29;20162;-86
2022/07/21 02:04:59;;;;;;;38.50;19.60;;;;;;;18.00;100.00;101499.69;9962991;29;20383;-85
2022/07/21 02:09:59;;;;;;;38.35;21.33;;;;;;;17.31;100.00;101427.13;9977018;29;20037;-85
2022/07/21 02:15:00;;;;;;;32.88;19.48;;;;;;;17.85;100.00;101525.69;9975791;29;20046;-85
2022/07/21 02:20:00;;;;;;;39.95;19.70;;;;;;;17.93;100.00;101539.00;9976124;29;20048;-85
2022/07/21 02:25:01;;;;;;;35.05;21.17;;;;;;;17.74;100.00;101526.84;9975703;29;20077;-85
2022/07/21 02:30:01;;;;;;;39.95;22.42;;;;;;;17.97;100.00;101610.88;9975508;29;20121;-84
2022/07/21 02:35:02;;;;;;;46.50;24.38;;;;;;;17.60;100.00;101589.84;9960905;29;20063;-85
2022/07/21 02:40:03;;;;;;;35.00;21.33;;;;;;;17.51;100.00;101562.59;9975716;29;20030;-86
2022/07/21 02:45:06;;;;;;;35.65;22.33;;;;;;;17.77;100.00;101634.88;9961168;29;20045;-86
2022/07/21 02:50:06;;;;;;;38.50;22.40;;;;;;;18.47;100.00;101726.00;9960203;29;20045;-85
2022/07/21 02:55:08;;;;;;;42.08;22.63;;;;;;;18.01;100.00;101635.09;9983702;29;20086;-84
2022/07/21 03:00:09;;;;;;;35.85;22.17;;;;;;;18.06;100.00;101664.88;9976604;29;20058;-86
2022/07/21 03:05:10;;;;;;;39.28;21.23;;;;;;;17.57;100.00;101568.13;9976670;29;23228;-84
2022/07/21 03:10:10;;;;;;;37.75;22.58;;;;;;;17.25;100.00;101534.00;9975962;29;20046;-84
2022/07/21 03:15:11;;;;;;;59.92;24.65;;;;;;;17.23;100.00;101497.28;9976972;29;20171;-85
2022/07/21 03:20:11;;;;;;;50.53;24.70;;;;;;;17.86;100.00;101594.22;9975881;29;20041;-85
2022/07/21 03:25:12;;;;;;;47.55;26.55;;;;;;;18.06;100.00;101609.16;9974459;29;20113;-86
2022/07/21 03:30:13;;;;;;;51.80;27.17;;;;;;;18.18;100.00;101617.19;9977261;29;20112;-85
2022/07/21 03:35:14;;;;;;;51.75;26.58;;;;;;;17.22;100.00;101465.03;9983067;29;20070;-84
2022/07/21 03:40:16;;;;;;;49.90;25.92;;;;;;;18.00;100.00;101562.94;9998744;29;20038;-84
2022/07/21 03:45:17;;;;;;;46.20;25.73;;;;;;;17.67;100.00;101534.66;9961712;29;20579;-84
2022/07/21 03:50:17;;;;;;;44.00;26.15;;;;;;;17.75;100.00;101564.72;9975767;29;20164;-84
2022/07/21 03:55:18;;;;;;;48.00;27.63;;;;;;;17.54;100.00;101530.56;9977448;29;20439;-85
2022/07/21 04:00:29;;;;;;;64.03;29.90;;;;;;;17.85;100.00;101573.03;9976468;29;20038;-85
2022/07/21 04:05:30;;;;;;;51.50;27.85;;;;;;;17.58;100.00;101531.66;9961378;29;20038;-85
2022/07/21 04:10:31;;;;;;;53.58;28.42;;;;;;;18.28;100.00;101631.88;9960284;29;20026;-85
2022/07/21 04:15:32;;;;;;;46.88;26.45;;;;;;;18.02;100.00;101585.78;9959615;29;20050;-85
2022/07/21 04:20:32;;;;;;;51.28;25.88;;;;;;;17.71;100.00;101550.53;9979058;29;20090;-85
2022/07/21 04:25:33;;;;;;;47.10;26.02;;;;;;;17.70;100.00;101542.47;9969612;29;20040;-84
2022/07/21 04:30:34;;;;;;;49.58;27.60;;;;;;;17.28;100.00;101493.66;9972891;29;20555;-84
2022/07/21 04:35:35;;;;;;;47.95;26.63;;;;;;;18.19;100.00;101596.53;9957450;29;20044;-86
2022/07/21 04:40:36;;;;;;;43.83;26.67;;;;;;;17.59;100.00;101504.66;9963649;29;20038;-85
2022/07/21 04:45:36;;;;;;;49.00;28.42;;;;;;;18.25;100.00;101573.94;9977125;29;20046;-85
2022/07/21 04:50:37;;;;;;;57.00;30.42;;;;;;;17.48;100.00;101421.19;9956858;29;20034;-84
2022/07/21 04:55:37;;;;;;;50.88;27.80;;;;;;;17.75;100.00;101498.69;9973059;29;20044;-85
2022/07/21 05:00:38;;;;;;;51.75;28.20;;;;;;;18.22;100.00;101582.88;9970939;29;20470;-85
2022/07/21 05:05:39;;;;;;;51.17;29.52;;;;;;;17.81;100.00;101509.81;9954883;29;20049;-85
2022/07/21 05:10:39;;;;;;;49.40;27.58;;;;;;;18.11;100.00;101581.28;9948046;29;21890;-85
2022/07/21 05:15:40;;;;;;;46.80;27.10;;;;;;;17.93;100.00;101550.16;9971529;29;20050;-85
2022/07/21 05:20:40;;;;;;;51.67;28.60;;;;;;;17.68;100.00;101514.91;9955801;29;20034;-85
2022/07/21 05:25:41;;;;;;;44.83;28.83;;;;;;;17.89;100.00;101539.88;9972227;29;20029;-85
2022/07/21 05:30:41;;;;;;;56.58;30.73;;;;;;;18.12;100.00;101558.66;9970950;29;20423;-86
2022/07/21 05:35:42;;;;;;;53.92;31.50;;;;;;;18.74;100.00;101636.31;9956383;29;20457;-85
2022/07/21 05:40:42;;;;;;;54.63;32.05;;;;;;;18.36;100.00;101574.69;9986217;29;20030;-85
2022/07/21 05:45:43;;;;;;;63.83;33.40;;;;;;;18.21;100.00;101553.34;9971931;29;20077;-85
2022/07/21 05:50:43;;;;;;;61.53;34.25;;;;;;;18.25;100.00;101514.56;9971294;29;20026;-85
2022/07/21 05:55:44;;;;;;;55.30;32.72;;;;;;;18.77;100.00;101585.53;9968959;29;20050;-86
2022/07/21 06:01:07;;;;;;;57.20;33.33;;;;;;;17.88;100.00;101427.66;9970825;29;20083;-85
2022/07/21 06:06:05;;;;;;;53.22;32.50;;;;;;;18.22;100.00;101513.19;9958471;29;20105;-87
2022/07/21 06:11:08;;;;;;;54.88;33.80;;;;;;;18.96;100.00;101627.50;9972509;29;20037;-88
2022/07/21 06:16:09;;;;;;;58.40;34.90;;;;;;;18.55;100.00;101552.50;9957739;29;20455;-87
2022/07/21 06:21:10;;;;;;;51.45;32.25;;;;;;;18.61;100.00;101548.56;9973586;29;20390;-86
2022/07/21 06:26:11;;;;;;;46.33;30.45;;;;;;;18.10;100.00;101474.53;9941274;29;20037;-87
2022/07/21 06:31:11;;;;;;;47.28;30.65;;;;;;;18.10;100.00;101505.19;9957386;29;20109;-86
2022/07/21 06:36:12;;;;;;;55.13;32.58;;;;;;;18.84;100.00;101619.50;9972104;29;20182;-86
2022/07/21 06:41:12;;;;;;;43.90;29.63;;;;;;;18.69;100.00;101564.66;9956663;29;20030;-86
2022/07/21 06:46:13;;;;;;;40.55;28.83;;;;;;;18.49;100.00;101540.56;9972130;29;20471;-87
2022/07/21 06:51:13;;;;;;;41.15;28.95;;;;;;;19.04;100.00;101587.81;9972188;29;20022;-87
2022/07/21 06:56:14;;;;;;;42.83;29.73;;;;;;;18.62;100.00;101488.84;9953420;29;20048;-89
2022/07/21 07:01:16;;;;;;;43.85;29.33;;;;;;;18.60;100.00;101479.94;9964270;29;20411;-87
2022/07/21 07:06:17;;;;;;;37.15;26.98;;;;;;;18.72;100.00;101497.13;9949798;29;20050;-87
2022/07/21 07:11:17;;;;;;;36.78;28.45;;;;;;;18.61;100.00;101495.56;9956763;29;20042;-86
2022/07/21 07:16:18;;;;;;;39.63;27.55;;;;;;;18.60;100.00;101485.53;9927634;29;20053;-87
2022/07/21 07:21:18;;;;;;;37.28;27.73;;;;;;;18.98;100.00;101557.47;9927296;29;20030;-87
2022/07/21 07:26:19;;;;;;;39.28;27.85;;;;;;;18.66;100.00;101540.13;9963213;29;20843;-87
2022/07/21 07:31:19;;;;;;;38.40;27.95;;;;;;;18.49;100.00;101546.16;9949306;29;20030;-86
2022/07/21 07:36:20;;;;;;;52.42;32.15;;;;;;;18.35;100.00;101543.22;9911807;29;20119;-87
2022/07/21 07:41:21;;;;;;;42.65;31.77;;;;;;;18.00;100.00;101504.44;9944284;29;20539;-87
2022/07/21 07:46:21;;;;;;;45.42;32.97;;;;;;;18.33;100.00;101562.19;9966045;29;20026;-86
2022/07/21 07:51:22;;;;;;;42.65;29.75;;;;;;;18.58;100.00;101599.31;9948682;29;20026;-87
2022/07/21 07:56:23;;;;;;;37.35;29.08;;;;;;;18.28;100.00;101534.31;9933021;29;20372;-87
2022/07/21 08:01:24;;;;;;;48.92;32.25;;;;;;;18.30;100.00;101509.78;9949071;29;20038;-87
2022/07/21 08:06:25;;;;;;;38.55;29.90;;;;;;;18.71;100.00;101559.63;9950031;29;20061;-87
2022/07/21 08:11:25;;;;;;;31.90;26.52;;;;;;;18.47;100.00;101502.94;9948626;29;20069;-87
2022/07/21 08:16:26;;;;;;;33.00;26.42;;;;;;;19.51;100.00;101656.00;9948847;29;20049;-88
2022/07/21 08:21:30;;;;;;;31.90;25.08;;;;;;;19.80;100.00;101654.31;9955121;29;20038;-87
2022/07/21 08:26:30;;;;;;;28.15;25.13;;;;;;;19.44;100.00;101527.06;9964565;29;20056;-88
2022/07/21 08:31:31;;;;;;;26.65;22.42;;;;;;;19.73;100.00;101534.53;9963335;29;20113;-87
2022/07/21 08:36:31;;;;;;;28.88;23.95;;;;;;;20.39;100.00;101487.13;9961755;29;20057;-88
2022/07/21 08:41:32;;;;;;;28.35;21.67;;;;;;;21.16;100.00;101473.38;9968538;29;20036;-88
2022/07/21 08:46:33;;;;;;;21.38;19.10;;;;;;;21.25;100.00;101479.09;9957505;29;20061;-87
2022/07/21 08:51:34;;;;;;;26.67;20.77;;;;;;;20.32;100.00;101359.75;9956066;29;20034;-87
2022/07/21 08:56:34;;;;;;;21.08;18.55;;;;;;;21.17;100.00;101544.22;9969176;29;20422;-88
2022/07/21 09:01:37;;;;;;;22.33;19.05;;;;;;;21.13;100.00;101524.41;9932377;29;20095;-88
2022/07/21 09:06:52;;;;;;;22.33;18.73;;;;;;;21.51;100.00;101566.22;9958036;29;20487;-88
2022/07/21 09:11:53;;;;;;;20.38;18.02;;;;;;;21.04;100.00;101478.66;9958685;29;20117;-88
2022/07/21 09:16:58;;;;;;;23.50;16.98;;;;;;;21.93;100.00;101544.59;9958067;29;20053;-87
2022/07/21 09:22:00;;;;;;;20.63;16.80;;;;;;;21.89;100.00;101532.38;9972753;29;20034;-87
2022/07/21 09:27:14;;;;;;;18.50;15.65;;;;;;;21.76;100.00;101534.03;9973115;29;20114;-87
2022/07/21 09:32:26;;;;;;;22.15;16.42;;;;;;;22.39;100.00;101582.00;9969120;29;20128;-87
2022/07/21 09:37:27;;;;;;;18.30;15.13;;;;;;;22.60;100.00;101551.44;9969969;29;20038;-86
2022/07/21 09:42:29;;;;;;;21.38;17.40;;;;;;;22.94;100.00;101632.28;9943455;29;20379;-86
2022/07/21 09:47:30;;;;;;;16.20;14.50;;;;;;;22.34;100.00;101532.44;9955506;29;20368;-86
2022/07/21 09:52:32;;;;;;;18.73;15.57;;;;;;;22.24;100.00;101510.28;9969718;29;20387;-86
2022/07/21 09:57:33;;;;;;;22.90;16.42;;;;;;;22.55;100.00;101577.66;9953916;29;20065;-87
2022/07/21 10:02:34;;;;;;;23.33;17.10;;;;;;;22.07;100.00;101510.91;9938831;29;21138;-87
2022/07/21 10:07:42;;;;;;;20.35;17.48;;;;;;;22.15;100.00;101621.50;9934427;29;20030;-85
2022/07/21 10:12:44;;;;;;;23.00;18.85;;;;;;;21.40;100.00;101581.56;9949919;29;20453;-86
2022/07/21 10:17:44;;;;;;;22.08;17.58;;;;;;;21.78;100.00;101648.63;9950411;29;20039;-86
2022/07/21 10:23:16;;;;;;;23.27;18.77;;;;;;;21.60;100.00;101597.19;9950154;29;20102;-86
2022/07/21 10:28:20;;;;;;;20.85;18.30;;;;;;;21.09;100.00;101470.16;9931706;29;20483;-85
2022/07/21 10:33:41;;;;;;;19.63;17.60;;;;;;;21.42;100.00;101477.63;9936003;29;20448;-86
2022/07/21 10:38:42;;;;;;;21.05;18.55;;;;;;;22.22;100.00;101579.84;9962887;29;20034;-86
2022/07/21 10:43:42;;;;;;;24.33;18.42;;;;;;;22.54;100.00;101598.44;9931754;29;20054;-85
2022/07/21 10:48:46;;;;;;;20.33;18.17;;;;;;;22.12;100.00;101558.47;9934585;29;20034;-86
2022/07/21 10:53:47;;;;;;;23.38;19.42;;;;;;;21.72;100.00;101515.38;9929019;29;20441;-85
2022/07/21 10:58:47;;;;;;;26.77;19.60;;;;;;;21.85;100.00;101548.16;9962724;29;20047;-85
2022/07/21 11:04:09;;;;;;;20.00;16.98;;;;;;;21.82;100.00;101576.78;9946929;29;20054;-86
2022/07/21 11:09:13;;;;;;;21.73;18.00;;;;;;;21.99;100.00;101625.78;9965171;29;20038;-86
2022/07/21 11:14:18;;;;;;;25.55;17.75;;;;;;;21.44;100.00;101534.19;9964356;29;20041;-86
2022/07/21 11:19:42;;;;;;;21.25;17.40;;;;;;;22.06;100.00;101592.56;9913938;29;20030;-86
2022/07/21 11:24:49;;;;;;;21.95;18.30;;;;;;;21.94;100.00;101554.66;9945873;29;20043;-86
2022/07/21 11:29:52;;;;;;;21.30;17.98;;;;;;;21.49;100.00;101534.91;9932323;29;20053;-86
2022/07/21 11:35:00;;;;;;;27.98;23.27;;;;;;;20.86;100.00;101507.59;9946559;29;20112;-85
2022/07/21 11:40:01;;;;;;;35.13;28.27;;;;;;;20.54;100.00;101570.78;9934316;29;20034;-86
2022/07/21 11:45:01;;;;;;;38.85;30.58;;;;;;;20.67;100.00;101630.75;9948447;29;20563;-85
2022/07/21 11:50:06;;;;;;;39.83;29.98;;;;;;;20.87;100.00;101636.00;9933648;29;20034;-86
2022/07/21 11:55:08;;;;;;;43.75;31.90;;;;;;;20.98;100.00;101603.09;9939975;29;20043;-85
2022/07/21 12:00:09;;;;;;;45.42;32.65;;;;;;;20.94;100.00;101548.88;9944156;29;20053;-86
2022/07/21 12:05:10;;;;;;;38.13;30.15;;;;;;;21.13;100.00;101518.81;9977486;29;20121;-86
2022/07/21 12:10:12;;;;;;;39.55;29.80;;;;;;;21.05;100.00;101418.75;9977227;29;20045;-87
2022/07/21 12:15:27;;;;;;;38.63;29.15;;;;;;;22.04;100.00;101544.38;9962778;29;20049;-86
2022/07/21 12:20:30;;;;;;;35.95;28.23;;;;;;;22.15;100.00;101495.31;9948587;29;20030;-86
2022/07/21 12:25:35;;;;;;;37.47;27.13;;;;;;;21.94;100.00;101433.28;9933923;29;20034;-88
2022/07/21 12:30:41;;;;;;;33.43;25.27;;;;;;;22.61;100.00;101454.88;9962280;29;20113;-88
2022/07/21 12:35:48;;;;;;;24.40;20.77;;;;;;;22.89;100.00;101454.69;9964094;29;20571;-87
2022/07/21 12:40:52;;;;;;;27.45;20.95;;;;;;;23.65;100.00;101516.25;9957366;29;20275;-88
2022/07/21 12:45:58;;;;;;;24.90;19.13;;;;;;;24.80;100.00;101562.97;9958602;29;20080;-88
2022/07/21 12:51:25;;;;;;;24.98;19.50;;;;;;;25.04;100.00;101416.75;9957427;29;20034;-88
2022/07/21 12:56:27;;;;;;;21.55;18.67;;;;;;;25.42;100.00;101376.41;9956245;29;20070;-89
2022/07/21 13:01:30;;;;;;;15.52;13.73;;;;;;;25.76;100.00;101461.91;9950227;29;20333;-89
2022/07/21 13:06:31;;;;;;;20.13;15.73;;;;;;;25.63;100.00;101465.78;9947373;29;20094;-89
2022/07/21 13:11:32;;;;;;;20.20;16.55;;;;;;;24.93;100.00;101438.03;9912108;29;20078;-89
2022/07/21 13:16:32;;;;;;;19.38;16.48;;;;;;;24.22;100.00;101362.56;9954133;29;20038;-88
2022/07/21 13:21:33;;;;;;;22.23;19.17;;;;;;;24.25;100.00;101423.81;9968327;29;20356;-88
2022/07/21 13:26:33;;;;;;;24.48;20.17;;;;;;;24.57;100.00;101467.44;9969999;29;20076;-88
2022/07/21 13:31:37;;;;;;;21.42;17.23;;;;;;;25.25;100.00;101511.78;9974414;29;20515;-88
2022/07/21 13:36:38;;;;;;;18.67;16.40;;;;;;;25.48;100.00;101486.97;9960182;29;20041;-88
2022/07/21 13:41:39;;;;;;;25.70;17.17;;;;;;;25.89;100.00;101508.75;9920026;29;20038;-88
2022/07/21 13:46:40;;;;;;;22.33;17.25;;;;;;;26.13;100.00;101521.38;9969128;29;20042;-89
2022/07/21 13:51:40;;;;;;;19.50;15.13;;;;;;;26.08;100.00;101507.44;9926600;29;20095;-87
2022/07/21 13:56:41;;;;;;;23.42;17.25;;;;;;;25.91;100.00;101481.03;9958262;29;20137;-88
2022/07/21 14:01:41;;;;;;;20.73;15.50;;;;;;;25.09;100.00;101514.31;9954528;29;20157;-88
2022/07/21 14:06:46;;;;;;;17.85;14.05;;;;;;;24.79;100.00;101494.56;9955003;29;20402;-87
2022/07/21 14:11:47;;;;;;;21.77;14.25;;;;;;;24.84;100.00;101401.44;9948629;29;20030;-87
2022/07/21 14:16:49;;;;;;;22.13;16.02;;;;;;;25.45;100.00;101420.81;9938011;29;20046;-88
2022/07/21 14:21:49;;;;;;;17.88;15.93;;;;;;;25.34;100.00;101461.84;9955355;29;20387;-89
2022/07/21 14:26:50;;;;;;;23.92;16.75;;;;;;;24.58;100.00;101443.78;9946941;29;20037;-91
2022/07/21 14:31:50;;;;;;;20.02;16.73;;;;;;;23.93;100.00;101518.78;9953673;29;20030;-90
2022/07/21 14:36:51;;;;;;;23.65;17.63;;;;;;;23.25;100.00;101470.53;9959164;29;20061;-89
2022/07/21 14:41:51;;;;;;;23.00;16.25;;;;;;;22.73;100.00;101401.75;9957415;29;20332;-88
2022/07/21 14:46:52;;;;;;;20.73;16.15;;;;;;;22.72;100.00;101408.53;9977273;29;20041;-87
2022/07/21 14:51:52;;;;;;;17.67;14.02;;;;;;;22.45;100.00;101363.84;9996788;29;20069;-88
2022/07/21 14:56:53;;;;;;;15.18;12.80;;;;;;;23.31;100.00;101525.41;9955776;29;20050;-87
2022/07/21 15:01:53;;;;;;;16.35;12.27;;;;;;;22.64;100.00;101431.78;9952547;29;20073;-87
2022/07/21 15:06:54;;;;;;;17.92;13.25;;;;;;;23.21;100.00;101500.41;9972113;29;20041;-85
2022/07/21 15:11:54;;;;;;;15.98;12.52;;;;;;;23.06;100.00;101519.34;9970778;29;20475;-86
2022/07/21 15:16:55;;;;;;;13.98;11.48;;;;;;;22.68;100.00;101460.88;9968050;29;20491;-89
2022/07/21 15:21:55;;;;;;;15.43;12.02;;;;;;;22.43;100.00;101455.91;10004345;29;20124;-88
2022/07/21 15:26:56;;;;;;;17.30;13.68;;;;;;;22.97;100.00;101574.63;9996231;29;20109;-87
2022/07/21 15:31:57;;;;;;;17.33;13.88;;;;;;;22.05;100.00;101436.66;9984639;29;20448;-87
2022/07/21 15:36:57;;;;;;;13.85;11.90;;;;;;;22.57;100.00;101540.84;9985317;29;20062;-87
2022/07/21 15:41:57;;;;;;;15.07;11.65;;;;;;;22.26;100.00;101446.28;9984831;29;20113;-86
2022/07/21 15:46:58;;;;;;;13.25;10.07;;;;;;;22.39;100.00;101489.41;9985499;29;20053;-86
2022/07/21 15:52:00;;;;;;;12.18;9.95;;;;;;;22.40;100.00;101564.00;9999094;29;20121;-86
2022/07/21 15:57:00;;;;;;;13.23;11.27;;;;;;;21.72;100.00;101520.97;9968730;29;20056;-86
2022/07/21 16:02:12;;;;;;;12.45;10.68;;;;;;;21.35;100.00;101522.84;9991955;29;20052;-86
2022/07/21 16:07:13;;;;;;;15.70;11.43;;;;;;;21.01;100.00;101546.47;9978671;29;20038;-86
2022/07/21 16:12:13;;;;;;;15.27;11.98;;;;;;;20.91;100.00;101589.47;10001457;29;20030;-85
2022/07/21 16:17:14;;;;;;;16.00;13.32;;;;;;;21.26;100.00;101640.38;9986246;29;20463;-85
2022/07/21 16:22:14;;;;;;;16.85;13.73;;;;;;;20.94;100.00;101590.84;10001838;29;20523;-86
2022/07/21 16:27:15;;;;;;;18.73;15.77;;;;;;;20.89;100.00;101642.13;9982426;29;20494;-86
2022/07/21 16:32:15;;;;;;;19.83;16.00;;;;;;;20.59;100.00;101612.69;9968914;29;20483;-87
2022/07/21 16:37:16;;;;;;;24.73;17.77;;;;;;;20.11;100.00;101593.25;9980606;29;20068;-86
2022/07/21 16:42:17;;;;;;;23.63;18.08;;;;;;;20.13;100.00;101607.75;9971253;29;20472;-85
2022/07/21 16:47:17;;;;;;;22.60;17.48;;;;;;;19.59;100.00;101551.16;9966571;29;20038;-86
2022/07/21 16:52:18;;;;;;;21.13;17.90;;;;;;;19.59;100.00;101541.97;9956364;29;20535;-86
2022/07/21 16:57:18;;;;;;;22.05;17.25;;;;;;;19.78;100.00;101569.94;9985856;29;20030;-86
2022/07/21 17:02:18;;;;;;;20.90;16.50;;;;;;;20.15;100.00;101631.50;9962779;29;20042;-85
2022/07/21 17:07:19;;;;;;;17.05;13.60;;;;;;;20.26;100.00;101657.34;9977937;29;20090;-85
2022/07/21 17:12:19;;;;;;;16.23;10.93;;;;;;;19.97;100.00;101635.09;9962925;29;20062;-85
2022/07/21 17:17:20;;;;;;;14.85;9.93;;;;;;;19.58;100.00;101583.03;9985800;29;20049;-85
2022/07/21 17:22:21;;;;;;;15.45;9.93;;;;;;;19.86;100.00;101639.13;9956983;29;20109;-85
2022/07/21 17:27:21;;;;;;;11.73;8.20;;;;;;;19.86;100.00;101630.75;9986517;29;20045;-85
2022/07/21 17:32:22;;;;;;;12.95;8.90;;;;;;;19.88;100.00;101654.47;9969451;29;20026;-85
2022/07/21 17:37:22;;;;;;;10.60;8.57;;;;;;;19.94;100.00;101698.00;9953439;29;20053;-85
2022/07/21 17:42:23;;;;;;;17.45;9.10;;;;;;;19.48;100.00;101611.91;9966396;29;20026;-85
2022/07/21 17:47:23;;;;;;;18.35;10.27;;;;;;;19.50;100.00;101631.16;9965920;29;20096;-85
2022/07/21 17:52:24;;;;;;;14.95;11.60;;;;;;;19.42;100.00;101651.34;9969236;29;20120;-85
2022/07/21 18:02:43;;;;;;;17.17;10.48;;;;;;;18.92;100.00;101652.38;9958459;29;20110;-85
2022/07/21 18:07:44;;;;;;;22.10;11.23;;;;;;;18.17;100.00;101538.31;9963246;29;20053;-85
2022/07/21 18:12:44;;;;;;;15.20;10.73;;;;;;;18.40;100.00;101588.88;9947018;29;20052;-85
2022/07/21 18:17:45;;;;;;;18.13;11.27;;;;;;;18.74;100.00;101659.44;9933037;29;20073;-84
2022/07/21 18:22:45;;;;;;;16.98;11.13;;;;;;;18.30;100.00;101638.00;9948603;29;20046;-86
2022/07/21 18:27:46;;;;;;;15.20;10.23;;;;;;;18.32;100.00;101673.97;9962157;29;20076;-86
2022/07/21 18:32:46;;;;;;;20.55;7.85;;;;;;;17.87;100.00;101643.22;9939982;29;20022;-87
2022/07/21 18:37:47;;;;;;;17.35;12.50;;;;;;;18.01;100.00;101667.72;9970229;29;20195;-87
2022/07/21 18:42:48;;;;;;;21.75;15.35;;;;;;;17.80;100.00;101673.31;9941633;29;20041;-86
2022/07/21 18:47:48;;;;;;;15.98;11.50;;;;;;;17.35;100.00;101608.28;9968851;29;20037;-86
2022/07/21 18:52:49;;;;;;;19.27;10.15;;;;;;;16.48;100.00;101494.38;9969253;29;20045;-86
2022/07/21 18:57:50;;;;;;;10.30;5.97;;;;;;;17.59;100.00;101710.69;9967733;29;20076;-87
2022/07/21 19:02:50;;;;;;;6.68;3.92;;;;;;;17.88;100.00;101781.41;9954836;29;20511;-86
2022/07/21 19:07:51;;;;;;;8.85;3.80;;;;;;;17.41;100.00;101743.56;9969227;29;20037;-86
2022/07/21 19:12:51;;;;;;;5.88;4.32;;;;;;;16.65;100.00;101669.22;9971792;29;20453;-85
2022/07/21 19:17:52;;;;;;;7.60;4.63;;;;;;;16.39;100.00;101676.66;9971694;29;20042;-86
2022/07/21 19:22:53;;;;;;;7.50;2.55;;;;;;;16.68;100.00;101757.63;9990211;29;20033;-86
2022/07/21 19:27:56;;;;;;;7.13;2.50;;;;;;;15.97;100.00;101664.59;9970892;29;20482;-91
2022/07/21 19:32:57;;;;;;;5.90;2.58;;;;;;;15.81;100.00;101673.94;9935142;29;20514;-90
2022/07/21 19:38:00;;;;;;;4.50;1.73;;;;;;;16.74;100.00;101851.06;9956824;29;20042;-92
2022/07/21 19:43:02;;;;;;;3.45;2.00;;;;;;;15.18;100.00;101629.44;9936147;29;20034;-91
2022/07/21 19:48:03;;;;;;;5.68;1.65;;;;;;;14.88;100.00;101570.72;9963967;29;20125;-91
2022/07/21 19:53:04;;;;;;;1.80;1.00;;;;;;;16.19;100.00;101775.53;9965370;29;20030;-92
2022/07/21 19:58:05;;;;;;;9.18;1.30;;;;;;;16.25;100.00;101796.66;9959300;29;20148;-91
2022/07/21 20:03:06;;;;;;;3.13;0.95;;;;;;;16.59;100.00;101882.44;9968050;29;20129;-91
2022/07/21 20:08:07;;;;;;;4.88;0.85;;;;;;;15.78;100.00;101766.94;9978896;29;20086;-92
2022/07/21 20:13:07;;;;;;;6.40;1.00;;;;;;;15.98;100.00;101809.81;9968332;29;20038;-91
2022/07/21 20:18:08;;;;;;;5.70;1.08;;;;;;;16.37;100.00;101862.28;9982094;29;20045;-91
2022/07/21 20:23:09;;;;;;;7.38;2.03;;;;;;;15.36;100.00;101717.78;9962399;29;20045;-92
2022/07/21 20:28:09;;;;;;;6.72;1.65;;;;;;;15.32;100.00;101731.34;9965734;29;20387;-92
2022/07/21 20:33:11;;;;;;;6.38;1.20;;;;;;;15.07;100.00;101684.84;9986541;29;20058;-90
2022/07/21 20:38:12;;;;;;;7.25;1.58;;;;;;;15.34;100.00;101739.41;9987167;29;20041;-90
2022/07/21 20:43:12;;;;;;;8.20;1.77;;;;;;;15.13;100.00;101699.56;9963359;29;20065;-88
2022/07/21 20:48:13;;;;;;;7.55;2.40;;;;;;;16.30;100.00;101902.28;9986870;29;20428;-86
2022/07/21 20:53:15;;;;;;;8.00;1.73;;;;;;;15.54;100.00;101778.44;9982625;29;20034;-87
2022/07/21 20:58:16;;;;;;;8.45;1.50;;;;;;;14.97;100.00;101731.06;9989654;29;20050;-86
2022/07/21 21:03:17;;;;;;;6.93;1.58;;;;;;;15.45;100.00;101816.06;9968456;29;20200;-88
2022/07/21 21:08:17;;;;;;;4.20;1.35;;;;;;;15.48;100.00;101812.78;9999862;29;20062;-88
2022/07/21 21:13:18;;;;;;;6.38;1.38;;;;;;;15.66;100.00;101885.66;9986513;29;20057;-88
2022/07/21 21:18:19;;;;;;;8.27;1.70;;;;;;;14.88;100.00;101716.81;10003865;29;20044;-89
2022/07/21 21:23:20;;;;;;;3.97;1.52;;;;;;;16.05;100.00;101904.88;9966754;29;20033;-89
2022/07/21 21:28:20;;;;;;;4.32;1.10;;;;;;;14.94;100.00;101754.56;9975702;29;20502;-88
2022/07/21 21:33:21;;;;;;;4.93;0.90;;;;;;;15.54;100.00;101872.78;9966636;29;20491;-86
2022/07/21 21:38:22;;;;;;;9.13;1.63;;;;;;;14.61;100.00;101709.34;9988246;29;20093;-89
2022/07/21 21:43:23;;;;;;;7.05;1.90;;;;;;;14.99;100.00;101814.81;9980680;29;20027;-85
2022/07/21 21:48:23;;;;;;;4.72;1.50;;;;;;;14.81;100.00;101793.81;9971166;29;20026;-85
2022/07/21 21:53:24;;;;;;;5.80;1.60;;;;;;;15.53;100.00;101882.19;9961863;29;20031;-86
2022/07/21 21:58:25;;;;;;;7.22;1.52;;;;;;;15.00;100.00;101833.13;9946820;29;20052;-85
2022/07/21 22:03:25;;;;;;;6.75;1.45;;;;;;;14.53;100.00;101759.66;9945713;29;20057;-85
2022/07/21 22:08:26;;;;;;;3.95;1.48;;;;;;;14.81;100.00;101796.59;9972236;29;20034;-85
2022/07/21 22:13:27;;;;;;;8.27;1.95;;;;;;;15.20;100.00;101865.78;9980541;29;20034;-85
2022/07/21 22:18:27;;;;;;;8.02;2.28;;;;;;;14.90;100.00;101825.50;9949158;29;20545;-85
2022/07/21 22:23:28;;;;;;;10.68;1.30;;;;;;;14.82;100.00;101804.66;9970650;29;20079;-86
2022/07/21 22:28:28;;;;;;;7.35;1.50;;;;;;;14.36;100.00;101745.03;9931364;29;20565;-85
2022/07/21 22:33:29;;;;;;;9.93;1.52;;;;;;;14.91;100.00;101857.69;9950362;29;20066;-84
2022/07/21 22:38:30;;;;;;;4.63;1.48;;;;;;;14.71;100.00;101830.56;9967942;29;20033;-85
2022/07/21 22:43:31;;;;;;;8.25;1.60;;;;;;;14.78;100.00;101858.94;9949753;29;20041;-85
2022/07/21 22:48:31;;;;;;;9.93;1.55;;;;;;;14.50;100.00;101782.34;9964616;29;20453;-86
2022/07/21 22:53:32;;;;;;;9.13;1.38;;;;;;;14.84;100.00;101873.69;9963565;29;20101;-85